sensor_id;sensor_type;location;lat;lon;timestamp;pressure;altitude;pressure_sealevel;temperature;humidity
61571;BME280;47463;49.884;10.010;2022-08-14T00:00:01;101833;;;20.1;70
61571;BME280;47463;49.884;10.010;2022-08-14T00:05:01;101831;;;20.1;70
61571;BME280;47463;49.884;10.010;2022-08-14T00:10:02;101827;;;20.1;70
61571;BME280;47463;49.884;10.010;2022-08-14T00:15:02;101826;;;20.1;71
61571;BME280;47463;49.884;10.010;2022-08-14T00:20:01;101820;;;20;71
61571;BME280;47463;49.884;10.010;2022-08-14T00:25:01;101812;;;20;71
61571;BME280;47463;49.884;10.010;2022-08-14T00:30:01;101802;;;19.9;71
61571;BME280;47463;49.884;10.010;2022-08-14T00:35:01;101791;;;19.8;71
61571;BME280;47463;49.884;10.010;2022-08-14T00:40:01;101787;;;19.7;72
61571;BME280;47463;49.884;10.010;2022-08-14T00:45:01;101788;;;19.6;72
61571;BME280;47463;49.884;10.010;2022-08-14T00:50:01;101780;;;19.5;72
61571;BME280;47463;49.884;10.010;2022-08-14T00:55:01;101779;;;19.4;72
61571;BME280;47463;49.884;10.010;2022-08-14T01:00:02;101780;;;19.4;73
61571;BME280;47463;49.884;10.010;2022-08-14T01:05:01;101767;;;19.3;73
61571;BME280;47463;49.884;10.010;2022-08-14T01:10:01;101763;;;19.3;73
61571;BME280;47463;49.884;10.010;2022-08-14T01:15:01;101761;;;19.2;74
61571;BME280;47463;49.884;10.010;2022-08-14T01:20:01;101756;;;19.1;74
61571;BME280;47463;49.884;10.010;2022-08-14T01:25:01;101751;;;19.1;74
61571;BME280;47463;49.884;10.010;2022-08-14T01:30:01;101753;;;19;74
61571;BME280;47463;49.884;10.010;2022-08-14T01:35:01;101741;;;19;74
61571;BME280;47463;49.884;10.010;2022-08-14T01:40:01;101731;;;18.9;75
61571;BME280;47463;49.884;10.010;2022-08-14T01:45:01;101727;;;18.8;75
61571;BME280;47463;49.884;10.010;2022-08-14T01:50:01;101730;;;18.7;75
61571;BME280;47463;49.884;10.010;2022-08-14T01:55:01;101717;;;18.7;75
61571;BME280;47463;49.884;10.010;2022-08-14T02:00:01;101712;;;18.6;75
61571;BME280;47463;49.884;10.010;2022-08-14T02:05:01;101703;;;18.6;75
61571;BME280;47463;49.884;10.010;2022-08-14T02:10:01;101697;;;18.4;76
61571;BME280;47463;49.884;10.010;2022-08-14T02:15:01;101694;;;18.4;76
61571;BME280;47463;49.884;10.010;2022-08-14T02:20:01;101689;;;18.4;76
61571;BME280;47463;49.884;10.010;2022-08-14T02:25:01;101680;;;18.3;76
61571;BME280;47463;49.884;10.010;2022-08-14T02:30:01;101664;;;18.3;76
61571;BME280;47463;49.884;10.010;2022-08-14T02:35:01;101670;;;18.2;76
61571;BME280;47463;49.884;10.010;2022-08-14T02:40:01;101664;;;18.1;76
61571;BME280;47463;49.884;10.010;2022-08-14T02:45:01;101670;;;18.1;76
61571;BME280;47463;49.884;10.010;2022-08-14T02:50:01;101660;;;18.1;76
61571;BME280;47463;49.884;10.010;2022-08-14T02:55:01;101653;;;18;76
61571;BME280;47463;49.884;10.010;2022-08-14T03:00:01;101641;;;17.9;76
61571;BME280;47463;49.884;10.010;2022-08-14T03:05:01;101635;;;17.9;76
61571;BME280;47463;49.884;10.010;2022-08-14T03:10:01;101625;;;17.8;76
61571;BME280;47463;49.884;10.010;2022-08-14T03:15:01;101616;;;17.7;77
61571;BME280;47463;49.884;10.010;2022-08-14T03:20:01;101619;;;17.7;77
61571;BME280;47463;49.884;10.010;2022-08-14T03:25:02;101610;;;17.6;77
61571;BME280;47463;49.884;10.010;2022-08-14T03:30:01;101601;;;17.6;77
61571;BME280;47463;49.884;10.010;2022-08-14T03:35:01;101594;;;17.6;77
61571;BME280;47463;49.884;10.010;2022-08-14T03:40:01;101587;;;17.5;77
61571;BME280;47463;49.884;10.010;2022-08-14T03:45:01;101580;;;17.4;77
61571;BME280;47463;49.884;10.010;2022-08-14T03:50:01;101567;;;17.4;77
61571;BME280;47463;49.884;10.010;2022-08-14T03:55:01;101564;;;17.4;77
61571;BME280;47463;49.884;10.010;2022-08-14T04:00:02;101551;;;17.4;77
61571;BME280;47463;49.884;10.010;2022-08-14T04:05:01;101552;;;17.3;77
61571;BME280;47463;49.884;10.010;2022-08-14T04:10:01;101572;;;17.3;77
61571;BME280;47463;49.884;10.010;2022-08-14T04:15:01;101582;;;17.2;77
61571;BME280;47463;49.884;10.010;2022-08-14T04:20:01;101575;;;17.2;77
61571;BME280;47463;49.884;10.010;2022-08-14T04:25:01;101574;;;17.3;77
61571;BME280;47463;49.884;10.010;2022-08-14T04:30:01;101577;;;17.4;77
61571;BME280;47463;49.884;10.010;2022-08-14T04:35:01;101576;;;17.4;77
61571;BME280;47463;49.884;10.010;2022-08-14T04:40:01;101571;;;17.5;77
61571;BME280;47463;49.884;10.010;2022-08-14T04:45:01;101571;;;17.6;77
61571;BME280;47463;49.884;10.010;2022-08-14T04:50:01;101569;;;17.6;77
61571;BME280;47463;49.884;10.010;2022-08-14T04:55:01;101557;;;17.7;76
61571;BME280;47463;49.884;10.010;2022-08-14T05:00:01;101568;;;17.8;76
61571;BME280;47463;49.884;10.010;2022-08-14T05:05:01;101563;;;17.9;76
61571;BME280;47463;49.884;10.010;2022-08-14T05:10:01;101566;;;18;76
61571;BME280;47463;49.884;10.010;2022-08-14T05:15:01;101562;;;18.2;76
61571;BME280;47463;49.884;10.010;2022-08-14T05:20:01;101554;;;18.4;75
61571;BME280;47463;49.884;10.010;2022-08-14T05:25:01;101555;;;18.4;75
61571;BME280;47463;49.884;10.010;2022-08-14T05:30:03;101561;;;18.8;75
61571;BME280;47463;49.884;10.010;2022-08-14T05:35:01;101557;;;19;74
61571;BME280;47463;49.884;10.010;2022-08-14T05:40:01;101565;;;19.2;74
61571;BME280;47463;49.884;10.010;2022-08-14T05:45:02;101559;;;19.1;74
61571;BME280;47463;49.884;10.010;2022-08-14T05:50:01;101558;;;19.1;74
61571;BME280;47463;49.884;10.010;2022-08-14T05:55:01;101554;;;19.5;74
61571;BME280;47463;49.884;10.010;2022-08-14T06:00:01;101548;;;19.6;74
61571;BME280;47463;49.884;10.010;2022-08-14T06:05:01;101543;;;19.9;73
61571;BME280;47463;49.884;10.010;2022-08-14T06:10:01;101533;;;20.1;73
61571;BME280;47463;49.884;10.010;2022-08-14T06:15:01;101546;;;20.4;72
61571;BME280;47463;49.884;10.010;2022-08-14T06:20:01;101539;;;21;71
61571;BME280;47463;49.884;10.010;2022-08-14T06:25:01;101532;;;21.1;71
61571;BME280;47463;49.884;10.010;2022-08-14T06:30:01;101541;;;21;71
61571;BME280;47463;49.884;10.010;2022-08-14T06:35:01;101554;;;20.8;72
61571;BME280;47463;49.884;10.010;2022-08-14T06:40:01;101538;;;21.4;70
61571;BME280;47463;49.884;10.010;2022-08-14T06:45:01;101531;;;21.3;70
61571;BME280;47463;49.884;10.010;2022-08-14T06:50:01;101528;;;21.5;70
61571;BME280;47463;49.884;10.010;2022-08-14T06:55:01;101533;;;21.7;70
61571;BME280;47463;49.884;10.010;2022-08-14T07:00:01;101529;;;21.7;70
61571;BME280;47463;49.884;10.010;2022-08-14T07:05:01;101536;;;22.1;69
61571;BME280;47463;49.884;10.010;2022-08-14T07:10:01;101528;;;22.4;68
61571;BME280;47463;49.884;10.010;2022-08-14T07:15:01;101506;;;22.3;68
61571;BME280;47463;49.884;10.010;2022-08-14T07:20:01;101517;;;22.3;68
61571;BME280;47463;49.884;10.010;2022-08-14T07:25:01;101484;;;22.5;68
61571;BME280;47463;49.884;10.010;2022-08-14T07:30:01;101479;;;22.5;68
61571;BME280;47463;49.884;10.010;2022-08-14T07:35:01;101469;;;22.7;67
61571;BME280;47463;49.884;10.010;2022-08-14T07:40:02;101488;;;23;67
61571;BME280;47463;49.884;10.010;2022-08-14T07:45:01;101478;;;23.3;66
61571;BME280;47463;49.884;10.010;2022-08-14T07:50:10;101439;;;23.5;65
61571;BME280;47463;49.884;10.010;2022-08-14T07:55:01;101431;;;23.7;65
61571;BME280;47463;49.884;10.010;2022-08-14T08:00:01;101414;;;23.7;64
61571;BME280;47463;49.884;10.010;2022-08-14T08:05:01;101413;;;23.7;64
61571;BME280;47463;49.884;10.010;2022-08-14T08:10:03;101401;;;23.9;63
61571;BME280;47463;49.884;10.010;2022-08-14T08:15:01;101390;;;23.8;63
61571;BME280;47463;49.884;10.010;2022-08-14T08:20:01;101377;;;24.1;62
61571;BME280;47463;49.884;10.010;2022-08-14T08:25:01;101389;;;24;63
61571;BME280;47463;49.884;10.010;2022-08-14T08:30:02;101408;;;24.6;62
61571;BME280;47463;49.884;10.010;2022-08-14T08:35:01;101383;;;24.9;60
61571;BME280;47463;49.884;10.010;2022-08-14T08:40:01;101389;;;25.2;58
61571;BME280;47463;49.884;10.010;2022-08-14T08:45:01;101372;;;25.4;57
61571;BME280;47463;49.884;10.010;2022-08-14T08:50:01;101364;;;25.4;57
61571;BME280;47463;49.884;10.010;2022-08-14T08:55:01;101371;;;25.8;56
61571;BME280;47463;49.884;10.010;2022-08-14T09:00:01;101371;;;25.8;56
61571;BME280;47463;49.884;10.010;2022-08-14T09:05:01;101374;;;26;55
61571;BME280;47463;49.884;10.010;2022-08-14T09:10:01;101370;;;25.6;56
61571;BME280;47463;49.884;10.010;2022-08-14T09:15:01;101365;;;25.9;55
61571;BME280;47463;49.884;10.010;2022-08-14T09:20:01;101349;;;26.1;55
61571;BME280;47463;49.884;10.010;2022-08-14T09:25:01;101341;;;26.4;53
61571;BME280;47463;49.884;10.010;2022-08-14T09:30:01;101348;;;27;53
61571;BME280;47463;49.884;10.010;2022-08-14T09:35:02;101336;;;26.7;52
61571;BME280;47463;49.884;10.010;2022-08-14T09:40:03;101331;;;27.1;49
61571;BME280;47463;49.884;10.010;2022-08-14T09:45:17;101343;;;27.1;49
61571;BME280;47463;49.884;10.010;2022-08-14T09:50:01;101328;;;27.7;48
61571;BME280;47463;49.884;10.010;2022-08-14T09:55:01;101309;;;26.8;50
61571;BME280;47463;49.884;10.010;2022-08-14T10:00:08;101315;;;26.8;50
61571;BME280;47463;49.884;10.010;2022-08-14T10:05:02;101303;;;27.7;46
61571;BME280;47463;49.884;10.010;2022-08-14T10:10:01;101266;;;27.7;46
61571;BME280;47463;49.884;10.010;2022-08-14T10:15:01;101272;;;27.5;45
61571;BME280;47463;49.884;10.010;2022-08-14T10:20:01;101264;;;28.1;45
61571;BME280;47463;49.884;10.010;2022-08-14T10:25:08;101254;;;28.1;44
61571;BME280;47463;49.884;10.010;2022-08-14T10:30:01;101265;;;27.3;46
61571;BME280;47463;49.884;10.010;2022-08-14T10:35:03;101244;;;28.3;45
61571;BME280;47463;49.884;10.010;2022-08-14T10:40:01;101247;;;27.8;45
61571;BME280;47463;49.884;10.010;2022-08-14T10:45:01;101230;;;27.6;45
61571;BME280;47463;49.884;10.010;2022-08-14T10:50:02;101217;;;28.1;44
61571;BME280;47463;49.884;10.010;2022-08-14T10:55:05;101203;;;28.2;44
61571;BME280;47463;49.884;10.010;2022-08-14T11:00:10;101199;;;27.8;43
61571;BME280;47463;49.884;10.010;2022-08-14T11:05:03;101199;;;28.2;43
61571;BME280;47463;49.884;10.010;2022-08-14T11:10:02;101196;;;28.2;43
61571;BME280;47463;49.884;10.010;2022-08-14T11:15:01;101191;;;28.4;42
61571;BME280;47463;49.884;10.010;2022-08-14T11:20:02;101197;;;28.9;42
61571;BME280;47463;49.884;10.010;2022-08-14T11:25:02;101190;;;28.9;42
61571;BME280;47463;49.884;10.010;2022-08-14T11:30:02;101176;;;27.8;44
61571;BME280;47463;49.884;10.010;2022-08-14T11:35:01;101178;;;27.9;44
61571;BME280;47463;49.884;10.010;2022-08-14T11:40:01;101163;;;28;44
61571;BME280;47463;49.884;10.010;2022-08-14T11:45:02;101163;;;28.1;44
61571;BME280;47463;49.884;10.010;2022-08-14T11:50:09;101143;;;28;44
61571;BME280;47463;49.884;10.010;2022-08-14T11:55:01;101149;;;28.4;43
61571;BME280;47463;49.884;10.010;2022-08-14T12:00:01;101143;;;28.7;43
61571;BME280;47463;49.884;10.010;2022-08-14T12:05:01;101153;;;29.1;42
61571;BME280;47463;49.884;10.010;2022-08-14T12:10:01;101131;;;29;42
61571;BME280;47463;49.884;10.010;2022-08-14T12:15:01;101123;;;28.5;43
61571;BME280;47463;49.884;10.010;2022-08-14T12:20:02;101127;;;28.6;43
61571;BME280;47463;49.884;10.010;2022-08-14T12:25:01;101112;;;28.9;42
61571;BME280;47463;49.884;10.010;2022-08-14T12:30:01;101109;;;28.8;43
61571;BME280;47463;49.884;10.010;2022-08-14T12:35:01;101094;;;28.5;43
61571;BME280;47463;49.884;10.010;2022-08-14T12:40:09;101100;;;28.4;44
61571;BME280;47463;49.884;10.010;2022-08-14T12:45:01;101062;;;28.5;44
61571;BME280;47463;49.884;10.010;2022-08-14T12:50:01;101049;;;28.7;42
61571;BME280;47463;49.884;10.010;2022-08-14T12:55:01;101039;;;29.2;41
61571;BME280;47463;49.884;10.010;2022-08-14T13:00:05;101031;;;29.8;39
61571;BME280;47463;49.884;10.010;2022-08-14T13:05:01;101028;;;29.6;40
61571;BME280;47463;49.884;10.010;2022-08-14T13:10:01;101017;;;29.7;40
61571;BME280;47463;49.884;10.010;2022-08-14T13:15:01;101006;;;29.7;40
61571;BME280;47463;49.884;10.010;2022-08-14T13:20:01;100993;;;30.2;38
61571;BME280;47463;49.884;10.010;2022-08-14T13:25:01;101008;;;30.5;38
61571;BME280;47463;49.884;10.010;2022-08-14T13:30:02;100995;;;30.6;38
61571;BME280;47463;49.884;10.010;2022-08-14T13:35:01;100983;;;31;37
61571;BME280;47463;49.884;10.010;2022-08-14T13:40:01;100967;;;31;37
61571;BME280;47463;49.884;10.010;2022-08-14T13:45:02;100940;;;31.4;37
61571;BME280;47463;49.884;10.010;2022-08-14T13:50:01;100921;;;30.5;37
61571;BME280;47463;49.884;10.010;2022-08-14T13:55:01;100925;;;30.1;38
61571;BME280;47463;49.884;10.010;2022-08-14T14:00:02;100907;;;30.5;37
61571;BME280;47463;49.884;10.010;2022-08-14T14:05:01;100893;;;30.3;37
61571;BME280;47463;49.884;10.010;2022-08-14T14:10:02;100891;;;30;37
61571;BME280;47463;49.884;10.010;2022-08-14T14:15:01;100905;;;30.5;37
61571;BME280;47463;49.884;10.010;2022-08-14T14:20:02;100905;;;30.9;37
61571;BME280;47463;49.884;10.010;2022-08-14T14:25:01;100892;;;30.9;36
61571;BME280;47463;49.884;10.010;2022-08-14T14:30:01;100873;;;30.9;36
61571;BME280;47463;49.884;10.010;2022-08-14T14:35:01;100882;;;31.3;36
61571;BME280;47463;49.884;10.010;2022-08-14T14:40:01;100873;;;31.3;35
61571;BME280;47463;49.884;10.010;2022-08-14T14:45:03;100858;;;31;36
61571;BME280;47463;49.884;10.010;2022-08-14T14:50:01;100856;;;30.9;36
61571;BME280;47463;49.884;10.010;2022-08-14T14:55:01;100859;;;30.8;36
61571;BME280;47463;49.884;10.010;2022-08-14T15:00:01;100850;;;30.8;36
61571;BME280;47463;49.884;10.010;2022-08-14T15:05:01;100852;;;30.7;36
61571;BME280;47463;49.884;10.010;2022-08-14T15:10:01;100844;;;30.9;36
61571;BME280;47463;49.884;10.010;2022-08-14T15:15:01;100846;;;30.9;36
61571;BME280;47463;49.884;10.010;2022-08-14T15:20:01;100828;;;30.9;36
61571;BME280;47463;49.884;10.010;2022-08-14T15:25:01;100828;;;30.3;37
61571;BME280;47463;49.884;10.010;2022-08-14T15:30:01;100826;;;30.3;37
61571;BME280;47463;49.884;10.010;2022-08-14T15:35:01;100819;;;30.3;37
61571;BME280;47463;49.884;10.010;2022-08-14T15:40:01;100810;;;30.8;36
61571;BME280;47463;49.884;10.010;2022-08-14T15:45:01;100821;;;30.8;36
61571;BME280;47463;49.884;10.010;2022-08-14T15:50:03;100818;;;31.4;35
61571;BME280;47463;49.884;10.010;2022-08-14T15:55:02;100817;;;31.7;35
61571;BME280;47463;49.884;10.010;2022-08-14T16:00:01;100800;;;31.6;35
61571;BME280;47463;49.884;10.010;2022-08-14T16:05:01;100786;;;32.2;34
61571;BME280;47463;49.884;10.010;2022-08-14T16:10:01;100794;;;32;34
61571;BME280;47463;49.884;10.010;2022-08-14T16:15:01;100786;;;32.2;34
61571;BME280;47463;49.884;10.010;2022-08-14T16:20:01;100767;;;32.2;34
61571;BME280;47463;49.884;10.010;2022-08-14T16:25:01;100761;;;31.4;35
61571;BME280;47463;49.884;10.010;2022-08-14T16:30:01;100762;;;31.1;35
61571;BME280;47463;49.884;10.010;2022-08-14T16:35:01;100757;;;31;36
61571;BME280;47463;49.884;10.010;2022-08-14T16:40:01;100759;;;31.1;36
61571;BME280;47463;49.884;10.010;2022-08-14T16:45:01;100754;;;31.1;36
61571;BME280;47463;49.884;10.010;2022-08-14T16:50:01;100752;;;31.2;36
61571;BME280;47463;49.884;10.010;2022-08-14T16:55:01;100742;;;31;36
61571;BME280;47463;49.884;10.010;2022-08-14T17:00:01;100728;;;30.9;36
61571;BME280;47463;49.884;10.010;2022-08-14T17:05:17;100745;;;30.8;36
61571;BME280;47463;49.884;10.010;2022-08-14T17:10:01;100740;;;30.7;36
61571;BME280;47463;49.884;10.010;2022-08-14T17:15:02;100730;;;30.4;37
61571;BME280;47463;49.884;10.010;2022-08-14T17:20:02;100720;;;30.3;37
61571;BME280;47463;49.884;10.010;2022-08-14T17:25:01;100736;;;29.9;38
61571;BME280;47463;49.884;10.010;2022-08-14T17:30:01;100737;;;29.7;38
61571;BME280;47463;49.884;10.010;2022-08-14T17:35:01;100742;;;29.5;40
61571;BME280;47463;49.884;10.010;2022-08-14T17:40:03;100746;;;29.3;40
61571;BME280;47463;49.884;10.010;2022-08-14T17:45:01;100756;;;29.2;40
61571;BME280;47463;49.884;10.010;2022-08-14T17:50:01;100754;;;29.1;41
61571;BME280;47463;49.884;10.010;2022-08-14T17:55:01;100750;;;29;41
61571;BME280;47463;49.884;10.010;2022-08-14T18:00:01;100763;;;28.8;41
61571;BME280;47463;49.884;10.010;2022-08-14T18:05:01;100759;;;28.5;42
61571;BME280;47463;49.884;10.010;2022-08-14T18:10:02;100756;;;28.3;43
61571;BME280;47463;49.884;10.010;2022-08-14T18:15:02;100760;;;28.1;43
61571;BME280;47463;49.884;10.010;2022-08-14T18:20:01;100765;;;27.7;44
61571;BME280;47463;49.884;10.010;2022-08-14T18:25:01;100764;;;27.2;45
61571;BME280;47463;49.884;10.010;2022-08-14T18:30:01;100762;;;26.6;47
61571;BME280;47463;49.884;10.010;2022-08-14T18:35:02;100770;;;26.4;47
61571;BME280;47463;49.884;10.010;2022-08-14T18:40:22;100774;;;26.1;48
61571;BME280;47463;49.884;10.010;2022-08-14T18:45:05;100780;;;26;48
61571;BME280;47463;49.884;10.010;2022-08-14T18:50:03;100781;;;25.8;49
61571;BME280;47463;49.884;10.010;2022-08-14T18:55:13;100780;;;25.7;49
61571;BME280;47463;49.884;10.010;2022-08-14T19:00:01;100783;;;25.5;50
61571;BME280;47463;49.884;10.010;2022-08-14T19:05:01;100790;;;25.3;50
61571;BME280;47463;49.884;10.010;2022-08-14T19:10:02;100793;;;25.1;50
61571;BME280;47463;49.884;10.010;2022-08-14T19:15:05;100798;;;24.9;51
61571;BME280;47463;49.884;10.010;2022-08-14T19:20:02;100792;;;24.8;52
61571;BME280;47463;49.884;10.010;2022-08-14T19:25:01;100794;;;24.5;53
61571;BME280;47463;49.884;10.010;2022-08-14T19:30:32;100799;;;24.1;54
61571;BME280;47463;49.884;10.010;2022-08-14T19:35:01;100804;;;23.8;55
61571;BME280;47463;49.884;10.010;2022-08-14T19:40:01;100812;;;23.5;56
61571;BME280;47463;49.884;10.010;2022-08-14T19:45:01;100814;;;23.5;55
61571;BME280;47463;49.884;10.010;2022-08-14T19:50:01;100814;;;23.5;56
61571;BME280;47463;49.884;10.010;2022-08-14T19:55:01;100813;;;23.6;55
61571;BME280;47463;49.884;10.010;2022-08-14T20:00:03;100816;;;23.6;55
61571;BME280;47463;49.884;10.010;2022-08-14T20:05:02;100820;;;23.5;55
61571;BME280;47463;49.884;10.010;2022-08-14T20:10:01;100819;;;23.6;55
61571;BME280;47463;49.884;10.010;2022-08-14T20:15:02;100819;;;23.6;54
61571;BME280;47463;49.884;10.010;2022-08-14T20:20:01;100824;;;23.6;55
61571;BME280;47463;49.884;10.010;2022-08-14T20:25:16;100825;;;23.5;55
61571;BME280;47463;49.884;10.010;2022-08-14T20:30:03;100822;;;23.3;56
61571;BME280;47463;49.884;10.010;2022-08-14T20:35:01;100825;;;23.2;56
61571;BME280;47463;49.884;10.010;2022-08-14T20:40:17;100822;;;23.2;56
61571;BME280;47463;49.884;10.010;2022-08-14T20:45:02;100824;;;23.1;56
61571;BME280;47463;49.884;10.010;2022-08-14T20:50:09;100824;;;22.9;57
61571;BME280;47463;49.884;10.010;2022-08-14T20:55:18;100824;;;22.7;58
61571;BME280;47463;49.884;10.010;2022-08-14T21:00:01;100829;;;22.7;58
61571;BME280;47463;49.884;10.010;2022-08-14T21:05:02;100826;;;22.6;58
61571;BME280;47463;49.884;10.010;2022-08-14T21:10:04;100826;;;22.5;58
61571;BME280;47463;49.884;10.010;2022-08-14T21:15:01;100828;;;22.4;58
61571;BME280;47463;49.884;10.010;2022-08-14T21:20:01;100831;;;22.3;59
61571;BME280;47463;49.884;10.010;2022-08-14T21:25:01;100828;;;22.4;58
61571;BME280;47463;49.884;10.010;2022-08-14T21:30:01;100830;;;22.7;57
61571;BME280;47463;49.884;10.010;2022-08-14T21:35:01;100839;;;22.7;57
61571;BME280;47463;49.884;10.010;2022-08-14T21:40:01;100839;;;22.2;59
61571;BME280;47463;49.884;10.010;2022-08-14T21:45:01;100841;;;22.2;59
61571;BME280;47463;49.884;10.010;2022-08-14T21:50:01;100844;;;21.9;60
61571;BME280;47463;49.884;10.010;2022-08-14T21:55:02;100841;;;21.7;61
61571;BME280;47463;49.884;10.010;2022-08-14T22:00:01;100843;;;21.7;60
61571;BME280;47463;49.884;10.010;2022-08-14T22:05:01;100845;;;21.8;60
61571;BME280;47463;49.884;10.010;2022-08-14T22:10:01;100829;;;21.7;61
61571;BME280;47463;49.884;10.010;2022-08-14T22:15:01;100838;;;21.6;61
61571;BME280;47463;49.884;10.010;2022-08-14T22:20:01;100847;;;21.4;62
61571;BME280;47463;49.884;10.010;2022-08-14T22:25:01;100848;;;21.2;62
61571;BME280;47463;49.884;10.010;2022-08-14T22:30:01;100848;;;21.3;62
61571;BME280;47463;49.884;10.010;2022-08-14T22:35:01;100853;;;21.2;62
61571;BME280;47463;49.884;10.010;2022-08-14T22:40:01;100851;;;21.3;62
61571;BME280;47463;49.884;10.010;2022-08-14T22:45:01;100856;;;21.2;62
61571;BME280;47463;49.884;10.010;2022-08-14T22:50:01;100855;;;21.2;62
61571;BME280;47463;49.884;10.010;2022-08-14T22:55:01;100859;;;21.3;62
61571;BME280;47463;49.884;10.010;2022-08-14T23:00:01;100857;;;21;63
61571;BME280;47463;49.884;10.010;2022-08-14T23:05:01;100860;;;20.7;64
61571;BME280;47463;49.884;10.010;2022-08-14T23:10:01;100857;;;20.5;65
61571;BME280;47463;49.884;10.010;2022-08-14T23:15:01;100856;;;20.4;66
61571;BME280;47463;49.884;10.010;2022-08-14T23:20:01;100852;;;20.3;66
61571;BME280;47463;49.884;10.010;2022-08-14T23:25:01;100850;;;20.3;66
61571;BME280;47463;49.884;10.010;2022-08-14T23:30:01;100849;;;20.2;66
61571;BME280;47463;49.884;10.010;2022-08-14T23:35:01;100854;;;20.2;66
61571;BME280;47463;49.884;10.010;2022-08-14T23:40:01;100853;;;20.2;66
61571;BME280;47463;49.884;10.010;2022-08-14T23:45:01;100857;;;20.2;66
61571;BME280;47463;49.884;10.010;2022-08-14T23:50:01;100859;;;20.3;66
61571;BME280;47463;49.884;10.010;2022-08-14T23:55:01;100858;;;20.3;66
